Cleveland, MS (38732)

7:44 PM CDT on July 07, 2015 (GMT -0500)
Cleveland Municipal | | Change Station
CLOSE
Current Station
Airport
Location: Cleveland Municipal Airport,
Elevation: 138 ft
Nearby Weather Stations
Active Advisory: Flood Warning

Elev 138 ft 33.76 °N, 90.76 °W | Updated 9 minutes ago

Clear
Clear
84 °F
Feels Like 98 °F
N
7
Wind Variable Wind from South

Today
High -- | Low -- °F
--% Chance of Precip.
Yesterday
High -- | Low -- °F
Precip. -- in
5:58 AM 8:16 PM
Waning Gibbous, 59% visible
Pressure 30.02 in
Visibility 10.0 miles
Clouds Clear
Heat Index 98 °F
Dew Point 81 °F
Humidity 90%
Rainfall 0.00 in
Snow Depth Not available.
UV 0 out of 12
Pollen 1.10 out of 12
Air Quality Not available.
Flu Activity Not available.
METAR KRNV 080035Z AUTO 18006KT 10SM CLR 29/27 A3002 RMK AO2 T02880270

More Conditions Fewer Conditions

Pressure 30.02 in
Visibility 10.0 miles
Clouds Clear
Heat Index 98 °F
Dew Point 81 °F
Humidity 90%
Rainfall 0.00 in
Snow Depth Not available.
UV 0 out of 12
Pollen 1.10 out of 12
Air Quality Not available.
Flu Activity Not available.
METAR KRNV 080035Z AUTO 18006KT 10SM CLR 29/27 A3002 RMK AO2 T02880270

More Conditions Fewer Conditions

10-Day Weather Forecast

×

Almanac

Astronomy

Jul. 07, 2015 Rise Set
Actual Time
Civil Twilight
Nautical Twilight
Astronomical Twilight
Moon
Length of Visible Light
Length of Day
Tomorrow will be .
, % of the Moon is Illuminated

Today's Extremes

State Highs State Lows

Community

WunderPhotos

Upload Photos

1,835,978 photos uploaded!

WunderBlogs® & News

Nearby

Air Quality

  Air Quality AQ Index Pollutant
Not available.

Snow Depth

Station Depth Elevation

Earthquake Activity

City Distance Mag. Time & Date
Minimum magnitude displayed is 2.5.

Coastal Water Temperatures

Place Temperature

Stations

Nearby Weather Stations

Station Location Temp. Windchill Dew Point Humidity Wind Precip. Elev Updated Type
                   
Flood Warning
Statement as of 1:43 PM CDT on July 07, 2015

The National Weather Service in Jackson has issued a

* Flood Warning for
the Mississippi River near Arkansas City
* from Tuesday July 14 until further notice.
* At 12:00 PM Tuesday the stage was 36.1 feet.
* Minor flooding is forecast.
* Flood stage is 37.0 feet.
* Forecast... the river is now expected to rise to near flood stage
of 37 feet on Tuesday July 14.
* Impact... at 37.0 feet... the low Silt plain in front of Arkansas City
inside the levee system begins to flood along with widespread
bottomland flooding at Huntington Point Mississippi.


              Flood observed forecast 7 am crest
location stg stg day time Wed Thu Fri crest time date

Lower Mississippi River
Arkansas City 37 36.1 Tue 12 PM 36.2 36.4 36.5 37.0 07 am 07/14




Lat... Lon 3340 9128 3357 9128 3413 9108 3412 9066
      3358 9106 3340 9105